Погода Клетинкана 2 недели

Тверская область, Россия

24 мая-06 июня
  • 24мая
    Сегодня
    +9°
    +24°
    Ясно и безоблачно
    ВремяПогодаТемператураВлажностьДавлениеВетер, м/сВероятность осадков
    00:00Облачно с прояснениями+9°C54 %762 мм3.5 м/с2 %
    03:00Ясно и безоблачно+7°C60 %762 мм2.5 м/с2 %
    06:00Ясно и безоблачно+10°C65 %763 мм2.7 м/с2 %
    09:00Практически безоблачно+17°C49 %763 мм2.9 м/с2 %
    12:00Ясно и безоблачно+22°C36 %763 мм2.2 м/с2 %
    15:00Ясно и безоблачно+23°C34 %762 мм1.8 м/с2 %
    18:00Ясно и безоблачно+23°C35 %761 мм2.3 м/с2 %
    21:00Ясно и безоблачно+15°C50 %761 мм2.5 м/с2 %
  • 25мая
    Суббота
    +11°
    +23°
    Ясно и безоблачно
    ВремяПогодаТемператураВлажностьДавлениеВетер, м/сВероятность осадков
    00:00Ясно и безоблачно+11°C63 %761 мм3.1 м/с2 %
    03:00Ясно и безоблачно+9°C71 %762 мм3.0 м/с2 %
    06:00Ясно и безоблачно+12°C70 %762 мм2.9 м/с2 %
    09:00Ясно и безоблачно+19°C47 %761 мм3.0 м/с2 %
    12:00Ясно и безоблачно+22°C31 %760 мм4.1 м/с2 %
    15:00Ясно и безоблачно+23°C28 %759 мм4.4 м/с2 %
    18:00Ясно и безоблачно+23°C30 %758 мм4.2 м/с2 %
    21:00Ясно и безоблачно+17°C48 %757 мм2.6 м/с2 %
  • 26мая
    Воскресенье
    +7°
    +21°
    Облачно с прояснениями
    ВремяПогодаТемператураВлажностьДавлениеВетер, м/сВероятность осадков
    00:00Ясно и безоблачно+13°C57 %756 мм3.1 м/с2 %
    03:00Ясно и безоблачно+11°C66 %756 мм2.6 м/с2 %
    06:00Ясно и безоблачно+14°C69 %756 мм2.3 м/с6 %
    09:00Облачно с прояснениями+19°C68 %757 мм2.9 м/с23 %
    12:00Пасмурно, сплошная облачность+20°C61 %757 мм3.3 м/с42 %
    15:00Облачно с прояснениями+21°C42 %758 мм4.3 м/с38 %
    18:00Небольшая облачность+20°C32 %758 мм4.5 м/с16 %
    21:00Практически безоблачно+15°C48 %758 мм3.6 м/с2 %
  • 27мая
    Понедельник
    +9°
    +22°
    Небольшая облачность
    ВремяПогодаТемператураВлажностьДавлениеВетер, м/сВероятность осадков
    00:00Ясно и безоблачно+11°C60 %759 мм2.8 м/с2 %
    03:00Ясно и безоблачно+8°C56 %760 мм3.1 м/с3 %
    06:00Ясно и безоблачно+9°C58 %761 мм2.6 м/с2 %
    09:00Ясно и безоблачно+17°C45 %761 мм2.6 м/с3 %
    12:00Ясно и безоблачно+20°C39 %761 мм2.1 м/с2 %
    15:00Небольшая облачность+21°C36 %760 мм1.6 м/с3 %
    18:00Практически безоблачно+21°C39 %759 мм1.4 м/с2 %
    21:00Ясно и безоблачно+16°C56 %758 мм2.3 м/с2 %
  • 28мая
    Вторник
    +10°
    +25°
    Ясно и безоблачно
    ВремяПогодаТемператураВлажностьДавлениеВетер, м/сВероятность осадков
    00:00Ясно и безоблачно+12°C63 %758 мм2.8 м/с2 %
    03:00Ясно и безоблачно+10°C67 %758 мм2.6 м/с2 %
    06:00Ясно и безоблачно+12°C68 %758 мм2.7 м/с2 %
    09:00Ясно и безоблачно+21°C54 %758 мм2.0 м/с2 %
    12:00Ясно и безоблачно+24°C37 %758 мм2.4 м/с5 %
    15:00Ясно и безоблачно+25°C33 %757 мм2.3 м/с7 %
    18:00Ясно и безоблачно+25°C33 %755 мм1.4 м/с14 %
    21:00Ясно и безоблачно+19°C49 %755 мм1.1 м/с2 %
Мы используем cookies
Соглашаюсь